Time;durP1;ratioP1;P1;durP2;ratioP2;P2;SDS_P1;SDS_P2;PMS_P1;PMS_P2;Temp;Humidity;BMP_temperature;BMP_pressure;BME280_temperature;BME280_humidity;BME280_pressure;Samples;Min_cycle;Max_cycle;Signal;HPM_P1;HPM_P2
2023/09/14 00:01:05;;;;;;;8.60;6.00;;;17.70;99.90;;;;;;5097619;28;20028;-68
2023/09/14 00:03:31;;;;;;;12.57;5.88;;;17.70;99.90;;;;;;5105902;28;20058;-68
2023/09/14 00:05:56;;;;;;;8.77;5.78;;;17.70;99.90;;;;;;5110443;28;20111;-68
2023/09/14 00:08:22;;;;;;;8.88;5.80;;;17.70;99.90;;;;;;5098852;28;20427;-67
2023/09/14 00:10:55;;;;;;;6.47;5.85;;;17.70;99.90;;;;;;5099748;28;20095;-67
2023/09/14 00:13:20;;;;;;;6.13;5.03;;;17.60;99.90;;;;;;5097615;28;20028;-68
2023/09/14 00:15:46;;;;;;;8.90;6.32;;;17.60;99.90;;;;;;5112340;28;20383;-68
2023/09/14 00:18:11;;;;;;;9.13;7.07;;;17.50;99.90;;;;;;5102389;28;20186;-68
2023/09/14 00:20:37;;;;;;;9.18;6.55;;;17.50;99.90;;;;;;5101574;28;20465;-67
2023/09/14 00:23:03;;;;;;;8.23;7.10;;;17.50;99.90;;;;;;5109604;28;20164;-68
2023/09/14 00:25:29;;;;;;;9.40;6.00;;;17.40;99.90;;;;;;5102442;28;20089;-68
2023/09/14 00:27:54;;;;;;;9.45;6.18;;;17.40;99.90;;;;;;5099794;28;20448;-68
2023/09/14 00:30:21;;;;;;;7.93;6.50;;;17.30;99.90;;;;;;5097825;28;20016;-68
2023/09/14 00:32:49;;;;;;;10.25;6.45;;;17.30;99.90;;;;;;5107054;28;20020;-67
2023/09/14 00:35:15;;;;;;;8.23;6.38;;;17.20;99.90;;;;;;5098029;28;20151;-67
2023/09/14 00:37:42;;;;;;;8.00;6.47;;;17.10;99.90;;;;;;5106833;28;20158;-68
2023/09/14 00:40:09;;;;;;;8.73;6.72;;;;;;;;;;5101525;28;20027;-68
2023/09/14 00:42:45;;;;;;;9.73;7.28;;;;;;;;;;5108930;28;20028;-67
2023/09/14 00:45:18;;;;;;;7.53;6.32;;;;;;;;;;5098800;28;20404;-67
2023/09/14 00:47:56;;;;;;;9.70;8.20;;;;;;;;;;5101038;28;20468;-68
2023/09/14 00:50:23;;;;;;;10.02;7.45;;;;;;;;;;5097665;28;20046;-68
2023/09/14 00:53:04;;;;;;;8.57;7.18;;;;;;;;;;5097051;28;20047;-68
2023/09/14 00:55:30;;;;;;;10.30;8.02;;;;;;;;;;5106346;28;20103;-68
2023/09/14 00:57:57;;;;;;;10.13;7.60;;;;;;;;;;5110006;28;20035;-68
2023/09/14 01:00:23;;;;;;;9.57;8.10;;;;;;;;;;5099582;28;20103;-67
2023/09/14 01:02:56;;;;;;;12.82;8.07;;;;;;;;;;5093679;28;20031;-68
2023/09/14 01:05:23;;;;;;;14.05;7.97;;;;;;;;;;5109519;28;20028;-68
2023/09/14 01:07:49;;;;;;;8.77;7.82;;;;;;;;;;5111794;28;20062;-68
2023/09/14 01:10:15;;;;;;;10.73;7.80;;;;;;;;;;5102565;28;20020;-67
2023/09/14 01:12:47;;;;;;;9.55;8.52;;;;;;;;;;5102433;28;20020;-67
2023/09/14 01:15:15;;;;;;;14.55;9.63;;;;;;;;;;5111893;28;20024;-67
2023/09/14 01:17:53;;;;;;;12.05;8.60;;;;;;;;;;5101385;28;20486;-68
2023/09/14 01:20:19;;;;;;;12.13;8.73;;;;;;;;;;5095171;28;20062;-68
2023/09/14 01:22:51;;;;;;;10.43;8.48;;;;;;;;;;5105679;28;20020;-67
2023/09/14 01:25:23;;;;;;;12.20;9.57;;;;;;;;;;5102228;28;20032;-68
2023/09/14 01:27:49;;;;;;;11.90;9.15;;;;;;;;;;5097989;28;20543;-68
2023/09/14 01:30:15;;;;;;;11.20;8.88;;;;;;;;;;5104376;28;20091;-68
2023/09/14 01:32:41;;;;;;;12.32;9.60;;;;;;;;;;5106364;28;20020;-68
2023/09/14 01:35:08;;;;;;;11.65;9.57;;;;;;;;;;5095779;28;20433;-68
2023/09/14 01:37:34;;;;;;;12.07;8.93;;;16.20;99.90;;;;;;5096250;28;20024;-67
2023/09/14 01:40:00;;;;;;;10.98;9.80;;;16.40;99.90;;;;;;5108441;28;20051;-67
2023/09/14 01:42:27;;;;;;;15.13;9.63;;;16.30;99.90;;;;;;5111078;28;20058;-68
2023/09/14 01:44:53;;;;;;;12.63;9.55;;;16.30;99.90;;;;;;5097222;28;20040;-67
2023/09/14 01:47:19;;;;;;;12.63;9.40;;;16.20;99.90;;;;;;5107407;28;20035;-67
2023/09/14 01:49:46;;;;;;;12.43;9.88;;;;;;;;;;5110775;28;20062;-68
2023/09/14 01:52:12;;;;;;;12.02;10.45;;;;;;;;;;5082794;28;20434;-67
2023/09/14 01:54:38;;;;;;;12.52;10.05;;;;;;;;;;5091930;28;20016;-68
2023/09/14 01:57:04;;;;;;;11.93;10.52;;;;;;;;;;5108570;28;20036;-67
2023/09/14 01:59:30;;;;;;;12.40;9.15;;;;;;;;;;5101516;28;20384;-68
2023/09/14 02:01:56;;;;;;;10.68;9.45;;;;;;;;;;5101300;28;20019;-68
2023/09/14 02:04:21;;;;;;;14.57;10.13;;;;;;;;;;5104972;28;20428;-68
2023/09/14 02:06:47;;;;;;;10.30;9.20;;;;;;;;;;5105583;28;20024;-67
2023/09/14 02:09:13;;;;;;;10.55;9.10;;;;;;;;;;5095120;28;20028;-68
2023/09/14 02:11:39;;;;;;;14.27;9.88;;;;;;;;;;5095969;28;20035;-68
2023/09/14 02:14:05;;;;;;;11.35;9.40;;;;;;;;;;5106777;28;20572;-67
2023/09/14 02:16:31;;;;;;;10.68;8.23;;;;;;;;;;5109037;28;20027;-68
2023/09/14 02:18:57;;;;;;;10.25;8.32;;;;;;;;;;5095812;28;20070;-67
2023/09/14 02:21:23;;;;;;;9.40;8.07;;;;;;;;;;5104426;28;20024;-68
2023/09/14 02:23:49;;;;;;;9.60;7.93;;;;;;;;;;5109267;28;20096;-68
2023/09/14 02:26:15;;;;;;;10.18;8.32;;;;;;;;;;5094735;28;20077;-67
2023/09/14 02:28:41;;;;;;;8.30;7.45;;;;;;;;;;5098047;28;20028;-67
2023/09/14 02:31:07;;;;;;;9.27;7.82;;;;;;;;;;5103771;28;20070;-68
2023/09/14 02:33:33;;;;;;;9.15;7.32;;;;;;;;;;5100874;28;20024;-67
2023/09/14 02:35:59;;;;;;;8.40;7.30;;;;;;;;;;5099827;28;20417;-68
2023/09/14 02:38:25;;;;;;;9.35;6.43;;;;;;;;;;5102938;28;20032;-67
2023/09/14 02:40:51;;;;;;;7.82;6.88;;;;;;;;;;5108943;28;20020;-68
2023/09/14 02:43:17;;;;;;;10.38;6.00;;;;;;;;;;5102666;28;20012;-68
2023/09/14 02:45:43;;;;;;;8.25;5.93;;;;;;;;;;5092291;28;20510;-68
2023/09/14 02:48:09;;;;;;;6.72;5.50;;;;;;;;;;5106005;28;20078;-68
2023/09/14 02:50:35;;;;;;;6.63;5.85;;;;;;;;;;5107238;28;20123;-67
2023/09/14 02:53:01;;;;;;;7.20;6.20;;;;;;;;;;5094524;28;20122;-68
2023/09/14 02:55:27;;;;;;;8.40;6.13;;;;;;;;;;5102778;28;20020;-68
2023/09/14 02:57:53;;;;;;;7.80;6.40;;;;;;;;;;5107474;28;20561;-68
2023/09/14 03:00:19;;;;;;;6.05;5.38;;;;;;;;;;5097641;28;20153;-68
2023/09/14 03:02:46;;;;;;;7.30;5.65;;;;;;;;;;5095756;28;20024;-67
2023/09/14 03:05:12;;;;;;;8.98;5.93;;;;;;;;;;5105826;28;20035;-67
2023/09/14 03:07:38;;;;;;;8.73;5.65;;;;;;;;;;5111301;28;20038;-68
2023/09/14 03:10:04;;;;;;;8.25;6.40;;;;;;;;;;5099253;28;20117;-68
2023/09/14 03:12:30;;;;;;;5.80;5.07;;;;;;;;;;5101625;28;20150;-67
2023/09/14 03:14:56;;;;;;;6.25;5.05;;;;;;;;;;5106851;28;20134;-67
2023/09/14 03:17:22;;;;;;;7.05;5.50;;;;;;;;;;5102065;28;20024;-68
2023/09/14 03:19:48;;;;;;;6.57;4.80;;;;;;;;;;5098598;28;20019;-67
2023/09/14 03:22:15;;;;;;;6.13;5.53;;;;;;;;;;5104680;28;20031;-67
2023/09/14 03:24:40;;;;;;;5.75;4.95;;;;;;;;;;5102983;28;20024;-68
2023/09/14 03:27:07;;;;;;;6.05;4.78;;;;;;;;;;5094770;28;20024;-67
2023/09/14 03:29:33;;;;;;;6.93;5.15;;;;;;;;;;5103482;28;20032;-68
2023/09/14 03:31:59;;;;;;;6.85;4.90;;;;;;;;;;5096399;28;20023;-68
2023/09/14 03:34:25;;;;;;;4.70;4.18;;;;;;;;;;5096110;28;20453;-68
2023/09/14 03:36:51;;;;;;;6.18;4.82;;;;;;;;;;5096180;28;20093;-68
2023/09/14 03:39:17;;;;;;;8.80;5.45;;;;;;;;;;5105859;28;20019;-68
2023/09/14 03:41:44;;;;;;;5.43;4.65;;;;;;;;;;5109901;28;20030;-68
2023/09/14 03:44:10;;;;;;;4.60;4.20;;;;;;;;;;5099080;28;20475;-67
2023/09/14 03:46:36;;;;;;;5.75;4.80;;;;;;;;;;5100511;28;20028;-67
2023/09/14 03:49:06;;;;;;;5.78;5.00;;;;;;;;;;5107001;28;20094;-68
2023/09/14 03:51:32;;;;;;;4.93;4.43;;;;;;;;;;5100367;28;20040;-67
2023/09/14 03:53:58;;;;;;;5.47;4.25;;;;;;;;;;5098213;28;20023;-67
2023/09/14 03:56:24;;;;;;;5.05;4.10;;;;;;;;;;5097235;28;20081;-68
2023/09/14 03:58:50;;;;;;;5.05;4.20;;;;;;;;;;5103987;28;20483;-68
2023/09/14 04:01:16;;;;;;;7.93;4.07;;;;;;;;;;5094739;28;20024;-68
2023/09/14 04:03:42;;;;;;;6.97;4.50;;;;;;;;;;5092693;28;20019;-68
2023/09/14 04:06:08;;;;;;;5.10;4.50;;;;;;;;;;5106972;28;20031;-68
2023/09/14 04:08:34;;;;;;;5.88;4.40;;;;;;;;;;5107147;28;20032;-67
2023/09/14 04:11:03;;;;;;;6.43;5.03;;;;;;;;;;5101633;28;20039;-68
2023/09/14 04:13:33;;;;;;;5.18;4.28;;;;;;;;;;5107363;28;20035;-68
2023/09/14 04:16:00;;;;;;;5.20;4.55;;;;;;;;;;5104394;28;20023;-67
2023/09/14 04:18:27;;;;;;;4.72;4.32;;;;;;;;;;5100335;28;20043;-68
2023/09/14 04:20:53;;;;;;;5.13;4.38;;;;;;;;;;5100321;28;20022;-67
2023/09/14 04:23:20;;;;;;;5.15;4.65;;;;;;;;;;5111638;28;20044;-68
2023/09/14 04:25:47;;;;;;;5.93;4.20;;;;;;;;;;5103300;28;20012;-68
2023/09/14 04:28:16;;;;;;;5.50;4.97;;;;;;;;;;5105334;28;20070;-67
2023/09/14 04:30:47;;;;;;;6.20;4.63;;;;;;;;;;5107492;28;20092;-68
2023/09/14 04:33:14;;;;;;;7.15;5.10;;;;;;;;;;5115657;28;20021;-67
2023/09/14 04:35:40;;;;;;;5.07;4.55;;;;;;;;;;5108800;28;20052;-67
2023/09/14 04:38:06;;;;;;;4.88;4.32;;;;;;;;;;5115358;28;20020;-67
2023/09/14 04:40:35;;;;;;;6.15;5.25;;;;;;;;;;5114953;28;20099;-67
2023/09/14 04:43:01;;;;;;;5.65;4.85;;;;;;;;;;5111186;28;20027;-67
2023/09/14 04:45:26;;;;;;;6.28;4.93;;;;;;;;;;5101615;28;20447;-67
2023/09/14 04:47:52;;;;;;;6.45;5.40;;;;;;;;;;5090737;28;20035;-67
2023/09/14 04:50:18;;;;;;;6.15;5.47;;;;;;;;;;5112063;28;20023;-67
2023/09/14 04:52:44;;;;;;;8.98;5.90;;;;;;;;;;5099194;28;20020;-67
2023/09/14 04:55:11;;;;;;;8.55;5.50;;;;;;;;;;5096004;28;20032;-67
2023/09/14 04:57:37;;;;;;;7.60;5.95;;;;;;;;;;5111145;28;20108;-68
2023/09/14 05:00:04;;;;;;;8.02;6.38;;;;;;;;;;5093768;28;20074;-68
2023/09/14 05:02:31;;;;;;;7.57;6.25;;;;;;;;;;5077243;28;20020;-67
2023/09/14 05:04:57;;;;;;;9.40;7.43;;;;;;;;;;5085305;28;20024;-68
2023/09/14 05:07:23;;;;;;;7.07;5.95;;;;;;;;;;5085121;28;20036;-68
2023/09/14 05:09:49;;;;;;;5.95;5.13;;;;;;;;;;5084845;28;20017;-69
2023/09/14 05:12:15;;;;;;;5.82;4.38;;;;;;;;;;5089545;28;20024;-68
2023/09/14 05:14:41;;;;;;;6.97;5.00;;;;;;;;;;5087263;28;20487;-68
2023/09/14 05:17:07;;;;;;;5.60;4.78;;;;;;;;;;5090708;28;20077;-67
2023/09/14 05:19:33;;;;;;;6.25;5.40;;;;;;;;;;5083880;28;20051;-68
2023/09/14 05:21:59;;;;;;;5.65;4.55;;;;;;;;;;5087882;28;20028;-68
2023/09/14 05:24:25;;;;;;;6.70;4.93;;;;;;;;;;5087574;28;20577;-68
2023/09/14 05:26:52;;;;;;;5.55;4.60;;;;;;;;;;5086482;28;20028;-68
2023/09/14 05:29:18;;;;;;;8.52;5.35;;;;;;;;;;5084702;28;20035;-68
2023/09/14 05:31:44;;;;;;;6.53;4.82;;;;;;;;;;5089400;28;20027;-68
2023/09/14 05:34:10;;;;;;;5.55;4.90;;;;;;;;;;5083618;28;20017;-68
2023/09/14 05:36:36;;;;;;;6.13;4.85;;;;;;;;;;5084146;28;20091;-68
2023/09/14 05:39:02;;;;;;;5.85;4.95;;;;;;;;;;5085947;28;20339;-67
2023/09/14 05:41:28;;;;;;;7.03;5.00;;;;;;;;;;5083028;28;20016;-70
2023/09/14 05:43:54;;;;;;;6.50;4.55;;;;;;;;;;5086950;28;20019;-69
2023/09/14 05:46:20;;;;;;;5.38;4.88;;;;;;;;;;5085872;28;20047;-68
2023/09/14 05:48:46;;;;;;;7.68;4.85;;;;;;;;;;5086116;28;20541;-71
2023/09/14 05:51:12;;;;;;;9.40;5.53;;;;;;;;;;5086125;28;20029;-70
2023/09/14 05:53:38;;;;;;;5.80;5.20;;;;;;;;;;5087421;28;20353;-66
2023/09/14 05:56:04;;;;;;;8.95;7.30;;;;;;;;;;5081941;28;20148;-71
2023/09/14 05:58:30;;;;;;;12.20;10.15;;;;;;;;;;5085409;28;20031;-68
2023/09/14 06:00:56;;;;;;;15.02;10.15;;;;;;;;;;5081987;28;20020;-67
2023/09/14 06:03:22;;;;;;;13.88;11.00;;;;;;;;;;5088579;28;20032;-68
2023/09/14 06:05:48;;;;;;;11.55;10.35;;;;;;;;;;5070707;28;20028;-68
2023/09/14 06:08:15;;;;;;;11.65;9.80;;;;;;;;;;5061289;28;20071;-68
2023/09/14 06:10:41;;;;;;;13.25;10.57;;;;;;;;;;5085403;28;20047;-68
2023/09/14 06:13:07;;;;;;;12.50;10.55;;;;;;;;;;5083842;28;20016;-68
2023/09/14 06:15:33;;;;;;;11.73;10.25;;;;;;;;;;5081728;28;20541;-68
2023/09/14 06:17:59;;;;;;;13.57;9.88;;;;;;;;;;5084249;28;20035;-67
2023/09/14 06:20:25;;;;;;;14.40;9.95;;;;;;;;;;5084126;28;20020;-68
2023/09/14 06:22:51;;;;;;;13.77;10.52;;;;;;;;;;5084726;28;20058;-68
2023/09/14 06:25:17;;;;;;;12.68;10.70;;;;;;;;;;5083220;28;20024;-68
2023/09/14 06:27:44;;;;;;;10.75;9.05;;;;;;;;;;5095393;28;20169;-68
2023/09/14 06:30:10;;;;;;;15.52;8.93;;;;;;;;;;5102759;28;20106;-69
2023/09/14 06:32:36;;;;;;;11.45;9.52;;;;;;;;;;5085476;28;20034;-68
2023/09/14 06:35:02;;;;;;;11.30;8.68;;;;;;;;;;5084017;28;20033;-72
2023/09/14 06:37:28;;;;;;;12.43;8.60;;;;;;;;;;5084065;28;20031;-68
2023/09/14 06:39:54;;;;;;;12.77;8.40;;;;;;;;;;5094490;28;20024;-70
2023/09/14 06:42:20;;;;;;;12.57;9.25;;;;;;;;;;5096069;28;20020;-72
2023/09/14 06:44:46;;;;;;;12.38;9.82;;;;;;;;;;5096264;28;20044;-73
2023/09/14 06:47:13;;;;;;;13.73;8.98;;;;;;;;;;5105591;28;20024;-69
2023/09/14 06:49:39;;;;;;;8.73;7.70;;;;;;;;;;5110241;28;20039;-69
2023/09/14 06:52:05;;;;;;;10.55;8.48;;;;;;;;;;5099398;28;20030;-68
2023/09/14 06:54:31;;;;;;;9.80;7.85;;;;;;;;;;5099775;28;20493;-71
2023/09/14 06:56:57;;;;;;;9.73;7.82;;;;;;;;;;5106156;28;20150;-68
2023/09/14 06:59:23;;;;;;;10.00;7.70;;;;;;;;;;5093541;28;20040;-69
2023/09/14 07:01:50;;;;;;;13.07;8.40;;;;;;;;;;5098200;28;20028;-69
2023/09/14 07:04:16;;;;;;;13.02;7.68;;;;;;;;;;5104717;28;20030;-69
2023/09/14 07:06:42;;;;;;;11.25;7.82;;;;;;;;;;5104366;28;20348;-70
2023/09/14 07:09:08;;;;;;;10.68;8.27;;;;;;;;;;5093428;28;20039;-69
2023/09/14 07:11:34;;;;;;;9.68;8.23;;;;;;;;;;5101398;28;20332;-68
2023/09/14 07:14:00;;;;;;;10.98;7.82;;;;;;;;;;5106095;28;20024;-69
2023/09/14 07:16:26;;;;;;;12.70;9.52;;;;;;;;;;5105046;28;20332;-69
2023/09/14 07:18:52;;;;;;;11.48;8.70;;;;;;;;;;5086249;28;20298;-68
2023/09/14 07:21:18;;;;;;;11.88;8.73;;;;;;;;;;5102262;28;20020;-69
2023/09/14 07:23:46;;;;;;;13.00;8.75;;;;;;;;;;5108733;28;20016;-70
2023/09/14 07:26:12;;;;;;;12.48;9.02;;;;;;;;;;5089467;28;20078;-68
2023/09/14 07:28:38;;;;;;;9.88;8.45;;;;;;;;;;5095581;28;20024;-67
2023/09/14 07:31:05;;;;;;;10.10;8.52;;;;;;;;;;5102493;28;20016;-68
2023/09/14 07:33:32;;;;;;;8.70;7.43;;;;;;;;;;5099281;28;20020;-68
2023/09/14 07:35:58;;;;;;;11.68;7.40;;;;;;;;;;5099018;28;20027;-68
2023/09/14 07:38:24;;;;;;;8.63;6.20;;;;;;;;;;5103072;28;20027;-68
2023/09/14 07:40:50;;;;;;;10.82;6.45;;;;;;;;;;5103606;28;20482;-68
2023/09/14 07:43:16;;;;;;;9.52;7.15;;;;;;;;;;5093561;28;20074;-68
2023/09/14 07:45:43;;;;;;;11.73;7.00;;;;;;;;;;5100962;28;20055;-69
2023/09/14 07:48:09;;;;;;;14.05;7.80;;;;;;;;;;5106502;28;20032;-68
2023/09/14 07:50:39;;;;;;;8.23;6.25;;;;;;;;;;5107553;28;20032;-68
2023/09/14 07:53:09;;;;;;;8.30;6.57;;;;;;;;;;5091445;28;20613;-68
2023/09/14 07:55:35;;;;;;;7.57;6.18;;;;;;;;;;5107476;28;20036;-68
2023/09/14 07:58:02;;;;;;;9.88;5.07;;;;;;;;;;5105870;28;20208;-68
2023/09/14 08:00:28;;;;;;;8.02;5.28;;;;;;;;;;5100557;28;20023;-68
2023/09/14 08:02:54;;;;;;;8.02;5.95;;;;;;;;;;5101115;28;20108;-68
2023/09/14 08:05:20;;;;;;;13.32;8.80;;;;;;;;;;5111901;28;20034;-68
2023/09/14 08:07:46;;;;;;;9.68;8.60;;;;;;;;;;5100263;28;20085;-68
2023/09/14 08:10:12;;;;;;;10.23;8.40;;;;;;;;;;5104742;28;20031;-68
2023/09/14 08:12:38;;;;;;;11.05;8.20;;;;;;;;;;5103486;28;20039;-68
2023/09/14 08:15:07;;;;;;;11.82;8.48;;;;;;;;;;5096160;28;20012;-68
2023/09/14 08:17:35;;;;;;;11.30;9.68;;;;;;;;;;5103033;28;20024;-68
2023/09/14 08:20:03;;;;;;;12.95;9.07;;;;;;;;;;5094259;28;20114;-68
2023/09/14 08:22:32;;;;;;;10.43;8.75;;;;;;;;;;5107193;28;20084;-69
2023/09/14 08:25:03;;;;;;;10.00;8.00;;;;;;;;;;5104805;28;20504;-68
2023/09/14 08:27:32;;;;;;;9.88;8.18;;;;;;;;;;5101763;28;20099;-70
2023/09/14 08:30:02;;;;;;;9.45;8.23;;;;;;;;;;5105205;28;20035;-69
2023/09/14 08:32:31;;;;;;;10.20;7.82;;;;;;;;;;5109102;28;20020;-69
2023/09/14 08:35:00;;;;;;;11.45;8.38;;;;;;;;;;5095187;28;20028;-69
2023/09/14 08:37:29;;;;;;;14.38;8.50;;;;;;;;;;5101028;28;20023;-69
2023/09/14 08:39:58;;;;;;;10.65;9.02;;;;;;;;;;5110667;28;20412;-69
2023/09/14 08:42:28;;;;;;;12.30;8.77;;;;;;;;;;5094252;28;20437;-69
2023/09/14 08:44:57;;;;;;;8.57;7.65;;;;;;;;;;5099171;28;20044;-69
2023/09/14 08:47:26;;;;;;;10.57;8.38;;;;;;;;;;5109673;28;20539;-69
2023/09/14 08:49:55;;;;;;;8.75;7.45;;;;;;;;;;5106241;28;20068;-69
2023/09/14 08:52:23;;;;;;;10.05;7.60;;;;;;;;;;5096332;28;20023;-69
2023/09/14 08:54:50;;;;;;;11.05;7.20;;;;;;;;;;5101799;28;20015;-68
2023/09/14 08:57:17;;;;;;;12.98;7.85;;;;;;;;;;5105328;28;20051;-69
2023/09/14 08:59:44;;;;;;;8.50;6.72;;;;;;;;;;5083446;28;20033;-67
2023/09/14 09:02:13;;;;;;;6.30;5.70;;;;;;;;;;5109681;28;20706;-67
2023/09/14 09:04:41;;;;;;;8.18;6.85;;;;;;;;;;5093268;28;20024;-67
2023/09/14 09:07:08;;;;;;;8.75;6.40;;;;;;;;;;5079804;28;20032;-67
2023/09/14 09:09:36;;;;;;;8.02;7.13;;;;;;;;;;5090690;28;20040;-67
2023/09/14 09:12:04;;;;;;;8.02;6.80;;;;;;;;;;5104887;28;20018;-67
2023/09/14 09:14:32;;;;;;;9.95;7.00;;;;;;;;;;5097019;28;20081;-67
2023/09/14 09:16:59;;;;;;;12.48;7.50;;;;;;;;;;5087585;28;20127;-68
2023/09/14 09:19:28;;;;;;;9.73;6.50;;;;;;;;;;5099189;28;20031;-67
2023/09/14 09:21:55;;;;;;;10.32;7.63;;;;;;;;;;5106071;28;20020;-67
2023/09/14 09:24:29;;;;;;;8.70;6.22;;;;;;;;;;5093100;28;20386;-68
2023/09/14 09:26:56;;;;;;;10.05;7.43;;;;;;;;;;5103789;28;20019;-67
2023/09/14 09:29:23;;;;;;;10.65;7.07;;;;;;;;;;5098296;28;20107;-67
2023/09/14 09:31:51;;;;;;;10.75;6.20;;;;;;;;;;5092269;28;20095;-67
2023/09/14 09:34:21;;;;;;;9.90;6.05;;;;;;;;;;5079516;28;20104;-68
2023/09/14 09:36:48;;;;;;;9.80;6.80;;;;;;;;;;5097734;28;20062;-67
2023/09/14 09:39:15;;;;;;;11.18;7.05;;;;;;;;;;5105479;28;20019;-69
2023/09/14 09:41:42;;;;;;;12.15;6.63;;;;;;;;;;5104437;28;20019;-68
2023/09/14 09:44:10;;;;;;;11.65;6.30;;;;;;;;;;5097794;28;20118;-68
2023/09/14 09:46:37;;;;;;;9.02;5.70;;;;;;;;;;5100124;28;20008;-68
2023/09/14 09:49:05;;;;;;;7.75;5.40;;;;;;;;;;5097700;28;20038;-68
2023/09/14 09:51:35;;;;;;;14.48;6.28;;;;;;;;;;5092288;28;20384;-68
2023/09/14 09:54:06;;;;;;;8.85;6.70;;;;;;;;;;5100848;28;20023;-68
2023/09/14 09:56:36;;;;;;;11.38;6.75;;;;;;;;;;5095812;28;20081;-67
2023/09/14 09:59:10;;;;;;;9.13;5.30;;;;;;;;;;5110109;28;20630;-68
2023/09/14 10:01:45;;;;;;;9.02;5.60;;;;;;;;;;5101023;28;20032;-68
2023/09/14 10:04:12;;;;;;;8.77;5.90;;;20.70;99.90;;;;;;5095684;28;20031;-68
2023/09/14 10:06:38;;;;;;;8.95;5.93;;;20.70;99.90;;;;;;5098426;28;20223;-68
2023/09/14 10:09:08;;;;;;;10.20;6.00;;;;;;;;;;5091845;28;20390;-67
2023/09/14 10:11:34;;;;;;;8.50;6.55;;;20.90;99.90;;;;;;5099540;28;20399;-69
2023/09/14 10:14:05;;;;;;;7.28;5.60;;;;;;;;;;5093575;28;20033;-68
2023/09/14 10:16:31;;;;;;;;;;;;;;;;;;5094825;28;20106;-68
2023/09/14 10:18:58;;;;;;;10.02;4.88;;;;;;;;;;5094011;28;19904;-68
2023/09/14 10:21:25;;;;;;;7.00;5.00;;;;;;;;;;5094068;28;20036;-68
2023/09/14 10:23:52;;;;;;;11.88;6.70;;;21.00;99.90;;;;;;5095718;28;20374;-68
2023/09/14 10:26:18;;;;;;;7.65;5.35;;;21.10;99.90;;;;;;5093030;28;20070;-69
2023/09/14 10:28:45;;;;;;;9.73;6.30;;;21.10;99.90;;;;;;5089097;28;20031;-68
2023/09/14 10:31:13;;;;;;;8.00;5.80;;;21.20;99.90;;;;;;5098160;28;20538;-68
2023/09/14 10:33:43;;;;;;;9.82;5.82;;;21.30;99.90;;;;;;5086475;28;20024;-69
2023/09/14 10:36:09;;;;;;;5.72;5.00;;;21.30;99.90;;;;;;5098782;28;20476;-68
2023/09/14 10:38:42;;;;;;;8.00;5.35;;;;;;;;;;5100125;28;20456;-69
2023/09/14 10:41:11;;;;;;;7.60;6.03;;;;;;;;;;5094064;28;20020;-68
2023/09/14 10:43:38;;;;;;;7.53;5.90;;;;;;;;;;5093026;28;20035;-68
2023/09/14 10:46:06;;;;;;;8.02;5.63;;;;;;;;;;5100732;28;20098;-68
2023/09/14 10:48:33;;;;;;;8.10;5.28;;;;;;;;;;5103129;28;20020;-71
2023/09/14 10:51:00;;;;;;;9.43;5.78;;;;;;;;;;5077709;28;20453;-67
2023/09/14 10:53:28;;;;;;;10.70;5.60;;;;;;;;;;5096452;28;20460;-68
2023/09/14 10:55:55;;;;;;;8.88;6.18;;;21.80;99.90;;;;;;5104234;28;20107;-67
2023/09/14 10:58:21;;;;;;;9.70;5.80;;;21.90;99.90;;;;;;5096932;28;20028;-67
2023/09/14 11:00:58;;;;;;;6.43;5.40;;;;;;;;;;5104593;28;20380;-67
2023/09/14 11:03:25;;;;;;;10.95;5.90;;;22.00;99.90;;;;;;5092845;28;20034;-67
2023/09/14 11:05:52;;;;;;;6.35;4.93;;;22.00;99.90;;;;;;5099433;28;20361;-67
2023/09/14 11:08:19;;;;;;;6.00;5.10;;;22.10;99.90;;;;;;5106370;28;20034;-67
2023/09/14 11:10:59;;;;;;;9.63;5.82;;;22.30;99.90;;;;;;5093009;28;20470;-67
2023/09/14 11:13:26;;;;;;;;;;;22.50;99.90;;;;;;5091958;28;20532;-68
2023/09/14 11:16:18;;;;;;;8.60;5.22;;;;;;;;;;5106329;28;19903;-66
2023/09/14 11:18:43;;;;;;;5.50;3.67;;;23.10;99.90;;;;;;5067198;28;20433;-67
2023/09/14 11:21:31;;;;;;;4.63;4.18;;;23.30;99.90;;;;;;5100146;28;20024;-70
2023/09/14 11:23:57;;;;;;;5.05;4.35;;;23.70;99.90;;;;;;5102334;28;20106;-71
2023/09/14 11:26:30;;;;;;;6.55;4.28;;;24.00;99.90;;;;;;5094605;28;20127;-71
2023/09/14 11:28:56;;;;;;;6.95;5.18;;;24.20;99.90;;;;;;5096847;28;20024;-73
2023/09/14 11:31:29;;;;;;;5.15;4.65;;;24.50;99.90;;;;;;5098287;28;20024;-69
2023/09/14 11:33:55;;;;;;;6.10;5.40;;;24.40;99.90;;;;;;5100123;28;20135;-70
2023/09/14 11:36:24;;;;;;;6.65;4.32;;;23.90;99.90;;;;;;5097535;28;20524;-69
2023/09/14 11:38:50;;;;;;;6.13;4.55;;;23.50;99.90;;;;;;5100616;28;20035;-70
2023/09/14 11:41:35;;;;;;;14.00;4.95;;;23.40;99.90;;;;;;5109382;28;20046;-70
2023/09/14 11:44:04;;;;;;;7.10;5.18;;;23.50;99.90;;;;;;5097670;28;20476;-69
2023/09/14 11:46:31;;;;;;;7.47;4.85;;;23.70;99.90;;;;;;5090650;28;20081;-70
2023/09/14 11:48:58;;;;;;;7.35;3.75;;;23.90;99.90;;;;;;5104631;28;20039;-70
2023/09/14 11:51:25;;;;;;;4.90;4.05;;;24.10;99.90;;;;;;5099437;28;20119;-70
2023/09/14 11:53:56;;;;;;;7.25;4.00;;;24.30;99.90;;;;;;5098435;28;20036;-70
2023/09/14 11:56:23;;;;;;;6.38;4.82;;;24.60;99.90;;;;;;5101542;28;20126;-69
2023/09/14 11:58:50;;;;;;;5.65;3.90;;;24.50;99.90;;;;;;5088323;28;20028;-69
2023/09/14 12:01:17;;;;;;;8.02;4.43;;;24.20;99.90;;;;;;5086444;28;20035;-70
2023/09/14 12:03:42;;;;;;;5.93;4.40;;;24.20;99.90;;;;;;5096562;28;20084;-69
2023/09/14 12:06:09;;;;;;;6.57;3.90;;;24.40;99.90;;;;;;5090289;28;20465;-71
2023/09/14 12:08:34;;;;;;;4.35;3.60;;;24.60;99.90;;;;;;5103899;28;20383;-69
2023/09/14 12:11:00;;;;;;;4.13;3.45;;;24.80;99.90;;;;;;5095322;28;20028;-70
2023/09/14 12:13:25;;;;;;;4.07;3.20;;;25.00;99.80;;;;;;5105357;28;20531;-69
2023/09/14 12:16:02;;;;;;;7.10;3.80;;;24.90;99.90;;;;;;5122053;28;20027;-69
2023/09/14 12:18:53;;;;;;;4.57;3.80;;;25.00;99.50;;;;;;5088750;28;20035;-69
2023/09/14 12:21:20;;;;;;;4.47;3.50;;;25.10;99.60;;;;;;5111823;28;20047;-69
2023/09/14 12:23:51;;;;;;;4.03;2.80;;;25.20;99.20;;;;;;5121848;28;20079;-69
2023/09/14 12:26:20;;;;;;;7.50;4.45;;;25.30;99.40;;;;;;5097395;28;20054;-70
2023/09/14 12:28:49;;;;;;;5.40;3.75;;;25.60;98.80;;;;;;5096553;28;20016;-69
2023/09/14 12:31:15;;;;;;;7.43;3.47;;;25.80;99.00;;;;;;5094587;28;20418;-71
2023/09/14 12:33:43;;;;;;;7.50;3.50;;;25.40;98.60;;;;;;5109889;28;20468;-70
2023/09/14 12:36:10;;;;;;;5.20;3.17;;;25.50;98.60;;;;;;5101589;28;20028;-70
2023/09/14 12:38:36;;;;;;;5.85;3.83;;;25.40;98.60;;;;;;5102255;28;20031;-69
2023/09/14 12:41:01;;;;;;;7.07;4.18;;;25.70;98.40;;;;;;5096517;28;20035;-69
2023/09/14 12:43:27;;;;;;;5.38;3.47;;;25.70;98.00;;;;;;5102134;28;20016;-69
2023/09/14 12:45:53;;;;;;;4.85;2.80;;;26.30;97.60;;;;;;5103597;28;20461;-69
2023/09/14 12:48:18;;;;;;;3.78;3.00;;;26.80;96.40;;;;;;5105343;28;20027;-72
2023/09/14 12:50:44;;;;;;;5.50;3.22;;;27.00;95.90;;;;;;5107617;28;20348;-72
2023/09/14 12:53:13;;;;;;;3.80;2.72;;;26.80;95.50;;;;;;5096324;28;20036;-72
2023/09/14 12:55:47;;;;;;;6.35;3.55;;;27.00;95.60;;;;;;5093810;28;20038;-72
2023/09/14 12:58:19;;;;;;;9.13;3.90;;;26.80;95.80;;;;;;5098316;28;20024;-71
2023/09/14 13:00:45;;;;;;;5.95;2.60;;;26.80;96.00;;;;;;5107590;28;20035;-72
2023/09/14 13:03:14;;;;;;;5.68;2.95;;;27.00;95.80;;;;;;5100716;28;20036;-72
2023/09/14 13:05:40;;;;;;;5.65;3.85;;;26.80;95.60;;;;;;5109114;28;20028;-72
2023/09/14 13:08:06;;;;;;;5.85;3.33;;;26.50;95.10;;;;;;5109651;28;20023;-72
2023/09/14 13:10:36;;;;;;;5.10;3.78;;;26.30;95.50;;;;;;5097419;28;20028;-71
2023/09/14 13:13:06;;;;;;;5.35;3.60;;;26.20;96.10;;;;;;5101235;28;20142;-72
2023/09/14 13:15:33;;;;;;;8.20;4.15;;;26.10;95.90;;;;;;5088961;28;20107;-71
2023/09/14 13:18:05;;;;;;;6.10;3.95;;;26.00;96.20;;;;;;5094928;28;20028;-71
2023/09/14 13:20:33;;;;;;;6.25;3.80;;;26.00;96.20;;;;;;5089327;28;20119;-72
2023/09/14 13:23:03;;;;;;;6.03;3.50;;;26.00;96.20;;;;;;5105508;28;20076;-72
2023/09/14 13:25:29;;;;;;;4.97;3.35;;;25.80;95.90;;;;;;5101529;28;20545;-71
2023/09/14 13:27:56;;;;;;;5.90;3.08;;;25.40;96.00;;;;;;5100027;28;20107;-71
2023/09/14 13:30:23;;;;;;;3.70;2.83;;;25.20;96.20;;;;;;5095839;28;20138;-71
2023/09/14 13:32:50;;;;;;;4.68;3.22;;;25.20;96.60;;;;;;5110350;28;20380;-71
2023/09/14 13:35:17;;;;;;;5.82;3.50;;;25.40;96.20;;;;;;5102898;28;20086;-71
2023/09/14 13:37:46;;;;;;;5.13;2.78;;;25.70;95.80;;;;;;5104501;28;20036;-71
2023/09/14 13:40:18;;;;;;;5.40;2.90;;;25.50;95.40;;;;;;5106153;28;20032;-72
2023/09/14 13:42:52;;;;;;;5.20;3.47;;;25.50;95.70;;;;;;5093548;28;20039;-72
2023/09/14 13:45:19;;;;;;;5.03;2.95;;;25.50;95.50;;;;;;5084245;28;20412;-71
2023/09/14 13:47:47;;;;;;;7.25;3.28;;;25.60;95.70;;;;;;5077316;28;20372;-72
2023/09/14 13:50:13;;;;;;;3.10;2.75;;;25.70;95.90;;;;;;5081731;28;20028;-71
2023/09/14 13:52:39;;;;;;;3.15;2.55;;;25.70;95.50;;;;;;5075640;28;20475;-71
2023/09/14 13:55:06;;;;;;;6.60;3.30;;;25.80;96.00;;;;;;5084305;28;20072;-72
2023/09/14 13:57:32;;;;;;;6.03;3.47;;;25.90;95.30;;;;;;5086378;28;20028;-72
2023/09/14 13:59:58;;;;;;;3.35;2.78;;;26.00;95.30;;;;;;5088811;28;20051;-72
2023/09/14 14:02:23;;;;;;;6.22;3.35;;;26.10;95.30;;;;;;5076392;28;20028;-72